Time;durP1;ratioP1;P1;durP2;ratioP2;P2;SDS_P1;SDS_P2;PMS_P1;PMS_P2;Temp;Humidity;BMP_temperature;BMP_pressure;BME280_temperature;BME280_humidity;BME280_pressure;Samples;Min_cycle;Max_cycle;Signal;HPM_P1;HPM_P2
2021/11/08 00:00:07;;;;;;;;;;;;;;;;;;2132120;27;19923;-44
2021/11/08 00:01:08;;;;;;;;;;;;;;;;;;2131762;27;20006;-44
2021/11/08 00:02:09;;;;;;;;;;;;;;;;;;2133516;27;19922;-44
2021/11/08 00:03:10;;;;;;;;;;;;;;;;;;2132440;27;20351;-44
2021/11/08 00:04:11;;;;;;;;;;;;;;;;;;2124360;27;19932;-42
2021/11/08 00:05:11;;;;;;;;;;;;;;;;;;2130653;27;19946;-44
2021/11/08 00:06:14;;;;;;;;;;;;;;;;;;2123480;28;20368;-43
2021/11/08 00:07:15;;;;;;;;;;;;;;;;;;2124192;27;20432;-43
2021/11/08 00:08:17;;;;;;;;;;;;;;;;;;2134666;27;20025;-44
2021/11/08 00:09:18;;;;;;;;;;;;;;;;;;2140598;27;19922;-43
2021/11/08 00:10:19;;;;;;;;;;;;;;;;;;2136115;27;19923;-43
2021/11/08 00:11:20;;;;;;;;;;;;;;;;;;2129022;27;20302;-43
2021/11/08 00:12:22;;;;;;;;;;;;;;;;;;2123496;28;19924;-43
2021/11/08 00:13:24;;;;;;;;;;;;;;;;;;2125449;27;20001;-43
2021/11/08 00:14:26;;;;;;;;;;;;;;;;;;2138683;27;20034;-44
2021/11/08 00:15:31;;;;;;;;;;;;;;;;;;2140571;27;20367;-44
2021/11/08 00:16:33;;;;;;;;;;;;;;;;;;2132844;27;19958;-43
2021/11/08 00:18:55;;;;;;;;;;;;;;;;;;2121595;27;20002;-43
2021/11/08 00:20:01;;;;;;;;;;;;;;;;;;2126433;27;20018;-44
2021/11/08 00:21:02;;;;;;;;;;;;;;;;;;2123572;28;20026;-44
2021/11/08 00:22:03;;;;;;;;;;;;;;;;;;2126865;27;20253;-43
2021/11/08 00:23:08;;;;;;;;;;;;;;;;;;2130474;27;19949;-48
2021/11/08 00:24:11;;;;;;;;;;;;;;;;;;2131919;27;20458;-43
2021/11/08 00:25:12;;;;;;;;;;;;;;;;;;2133045;27;20013;-43
2021/11/08 00:26:12;;;;;;;;;;;;;;;;;;2124303;27;20061;-45
2021/11/08 00:27:13;;;;;;;;;;;;;;;;;;2123221;28;19923;-45
2021/11/08 00:28:14;;;;;;;;;;;;;;;;;;2127647;27;19931;-43
2021/11/08 00:29:15;;;;;;;;;;;;;;;;;;2131720;27;19930;-45
2021/11/08 00:30:16;;;;;;;;;;;;;;;;;;2132067;27;19923;-44
2021/11/08 00:31:16;;;;;;;;;;;;;;;;;;2129050;27;20468;-43
2021/11/08 00:32:17;;;;;;;;;;;;;;;;;;2123058;27;19927;-46
2021/11/08 00:33:19;;;;;;;;;;;;;;;;;;2123368;28;20264;-43
2021/11/08 00:34:20;;;;;;;;;;;;;;;;;;2131899;27;20017;-43
2021/11/08 00:35:20;;;;;;;;;;;;;;;;;;2140621;27;20022;-44
2021/11/08 00:36:21;;;;;;;;;;;;;;;;;;2140636;27;20371;-45
2021/11/08 00:37:22;;;;;;;;;;;;;;;;;;2130817;27;19966;-43
2021/11/08 00:38:24;;;;;;;;;;;;;;;;;;2131832;27;19948;-43
2021/11/08 00:39:25;;;;;;;;;;;;;;;;;;2131526;27;20033;-44
2021/11/08 00:40:26;;;;;;;;;;;;;;;;;;2129832;27;19930;-44
2021/11/08 00:41:28;;;;;;;;;;;;;;;;;;2131826;27;19923;-43
2021/11/08 00:42:32;;;;;;;;;;;;;;;;;;2130451;27;19971;-44
2021/11/08 00:43:33;;;;;;;;;;;;;;;;;;2130888;27;20293;-43
2021/11/08 00:44:34;;;;;;;;;;;;;;;;;;2131514;27;20460;-43
2021/11/08 00:45:35;;;;;;;;;;;;;;;;;;2129894;27;20287;-43
2021/11/08 00:46:36;;;;;;;;;;;;;;;;;;2131273;27;19923;-44
2021/11/08 00:47:37;;;;;;;;;;;;;;;;;;2131858;27;20022;-44
2021/11/08 00:48:38;;;;;;;;;;;;;;;;;;2129304;27;19930;-43
2021/11/08 00:49:40;;;;;;;;;;;;;;;;;;2128604;27;20014;-44
2021/11/08 00:50:42;;;;;;;;;;;;;;;;;;2123252;28;20451;-44
2021/11/08 00:51:45;;;;;;;;;;;;;;;;;;2126632;27;20006;-43
2021/11/08 00:52:45;;;;;;;;;;;;;;;;;;2131604;27;20018;-43
2021/11/08 00:53:47;;;;;;;;;;;;;;;;;;2131822;27;19950;-43
2021/11/08 00:54:48;;;;;;;;;;;;;;;;;;2130018;27;20033;-45
2021/11/08 00:55:50;;;;;;;;;;;;;;;;;;2131199;27;20007;-44
2021/11/08 00:56:55;;;;;;;;;;;;;;;;;;2131640;27;20434;-45
2021/11/08 00:57:59;;;;;;;;;;;;;;;;;;2132807;27;20013;-44
2021/11/08 00:59:00;;;;;;;;;;;;;;;;;;2123285;28;19930;-45
2021/11/08 01:00:01;;;;;;;;;;;;;;;;;;2123081;28;19923;-46
2021/11/08 01:01:04;;;;;;;;;;;;;;;;;;2128657;27;20021;-45
2021/11/08 01:02:05;;;;;;;;;;;;;;;;;;2131832;27;20026;-45
2021/11/08 01:03:07;;;;;;;;;;;;;;;;;;2129777;27;20416;-46
2021/11/08 01:04:08;;;;;;;;;;;;;;;;;;2129682;27;20017;-45
2021/11/08 01:05:09;;;;;;;;;;;;;;;;;;2131779;27;20002;-45
2021/11/08 01:06:11;;;;;;;;;;;;;;;;;;2131399;27;20005;-44
2021/11/08 01:07:11;;;;;;;;;;;;;;;;;;2129746;27;20062;-45
2021/11/08 01:08:12;;;;;;;;;;;;;;;;;;2131687;27;20283;-46
2021/11/08 01:09:13;;;;;;;;;;;;;;;;;;2130600;27;19923;-45
2021/11/08 01:10:14;;;;;;;;;;;;;;;;;;2130465;27;19923;-45
2021/11/08 01:11:15;;;;;;;;;;;;;;;;;;2131680;27;19930;-45
2021/11/08 01:12:16;;;;;;;;;;;;;;;;;;2129818;27;19924;-45
2021/11/08 01:13:16;;;;;;;;;;;;;;;;;;2134556;27;20283;-46
2021/11/08 01:14:17;;;;;;;;;;;;;;;;;;2140237;27;19934;-43
2021/11/08 01:15:18;;;;;;;;;;;;;;;;;;2135666;27;19999;-45
2021/11/08 01:16:23;;;;;;;;;;;;;;;;;;2130408;27;19930;-45
2021/11/08 01:17:24;;;;;;;;;;;;;;;;;;2131745;27;20017;-45
2021/11/08 01:18:25;;;;;;;;;;;;;;;;;;2131435;27;20231;-45
2021/11/08 01:19:27;;;;;;;;;;;;;;;;;;2126848;27;19987;-45
2021/11/08 01:20:33;;;;;;;;;;;;;;;;;;2123141;28;19933;-45
2021/11/08 01:21:33;;;;;;;;;;;;;;;;;;2130086;27;20010;-45
2021/11/08 01:22:35;;;;;;;;;;;;;;;;;;2130563;27;19923;-45
2021/11/08 01:23:36;;;;;;;;;;;;;;;;;;2131722;27;19962;-47
2021/11/08 01:24:37;;;;;;;;;;;;;;;;;;2129301;27;20360;-45
2021/11/08 01:25:37;;;;;;;;;;;;;;;;;;2131454;27;19927;-45
2021/11/08 01:26:38;;;;;;;;;;;;;;;;;;2131855;27;19923;-45
2021/11/08 01:27:40;;;;;;;;;;;;;;;;;;2128758;27;20432;-46
2021/11/08 01:28:45;;;;;;;;;;;;;;;;;;2123012;28;20014;-45
2021/11/08 01:29:45;;;;;;;;;;;;;;;;;;2123036;28;20010;-44
2021/11/08 01:30:47;;;;;;;;;;;;;;;;;;2126675;27;20387;-45
2021/11/08 01:31:48;;;;;;;;;;;;;;;;;;2122922;28;20021;-44
2021/11/08 01:32:54;;;;;;;;;;;;;;;;;;2123283;27;20379;-45
2021/11/08 01:33:55;;;;;;;;;;;;;;;;;;2133135;27;20021;-45
2021/11/08 01:34:57;;;;;;;;;;;;;;;;;;2140338;27;20010;-45
2021/11/08 01:36:09;;;;;;;;;;;;;;;;;;2136315;27;19927;-46
2021/11/08 01:37:11;;;;;;;;;;;;;;;;;;2124980;27;20048;-43
2021/11/08 01:38:22;;;;;;;;;;;;;;;;;;2122982;28;20018;-45
2021/11/08 01:39:31;;;;;;;;;;;;;;;;;;2126896;27;20013;-46
2021/11/08 01:40:32;;;;;;;;;;;;;;;;;;2131273;27;20424;-44
2021/11/08 01:41:33;;;;;;;;;;;;;;;;;;2131727;27;19927;-43
2021/11/08 01:42:34;;;;;;;;;;;;;;;;;;2131597;27;20006;-44
2021/11/08 01:43:35;;;;;;;;;;;;;;;;;;2122894;27;19923;-46
2021/11/08 01:44:36;;;;;;;;;;;;;;;;;;2124215;28;20022;-43
2021/11/08 01:45:36;;;;;;;;;;;;;;;;;;2130854;27;19974;-43
2021/11/08 01:46:37;;;;;;;;;;;;;;;;;;2133102;27;19930;-44
2021/11/08 01:47:38;;;;;;;;;;;;;;;;;;2132437;27;19926;-45
2021/11/08 01:48:39;;;;;;;;;;;;;;;;;;2130946;27;19950;-43
2021/11/08 01:49:40;;;;;;;;;;;;;;;;;;2132994;27;19923;-43
2021/11/08 01:50:43;;;;;;;;;;;;;;;;;;2132653;27;19972;-43
2021/11/08 01:51:44;;;;;;;;;;;;;;;;;;2135741;27;20421;-44
2021/11/08 01:52:45;;;;;;;;;;;;;;;;;;2141543;27;19923;-45
2021/11/08 01:53:46;;;;;;;;;;;;;;;;;;2137901;27;19923;-44
2021/11/08 01:54:47;;;;;;;;;;;;;;;;;;2131535;27;20018;-44
2021/11/08 01:55:48;;;;;;;;;;;;;;;;;;2124491;28;19931;-43
2021/11/08 01:56:49;;;;;;;;;;;;;;;;;;2125486;27;19946;-44
2021/11/08 01:57:49;;;;;;;;;;;;;;;;;;2131823;27;20405;-44
2021/11/08 01:58:50;;;;;;;;;;;;;;;;;;2133004;27;19923;-45
2021/11/08 01:59:51;;;;;;;;;;;;;;;;;;2132040;27;19927;-44
2021/11/08 02:00:52;;;;;;;;;;;;;;;;;;2129815;27;20280;-44
2021/11/08 02:01:53;;;;;;;;;;;;;;;;;;2124391;28;19930;-43
2021/11/08 02:02:54;;;;;;;;;;;;;;;;;;2125522;27;20037;-45
2021/11/08 02:03:55;;;;;;;;;;;;;;;;;;2128190;27;19924;-44
2021/11/08 02:04:56;;;;;;;;;;;;;;;;;;2124418;28;20002;-43
2021/11/08 02:05:56;;;;;;;;;;;;;;;;;;2126993;27;19923;-44
2021/11/08 02:06:57;;;;;;;;;;;;;;;;;;2140269;27;20307;-45
2021/11/08 02:07:58;;;;;;;;;;;;;;;;;;2141470;27;19937;-44
2021/11/08 02:08:59;;;;;;;;;;;;;;;;;;2134075;27;20010;-43
2021/11/08 02:09:59;;;;;;;;;;;;;;;;;;2132363;27;20292;-44
2021/11/08 02:11:00;;;;;;;;;;;;;;;;;;2133011;27;20386;-44
2021/11/08 02:12:01;;;;;;;;;;;;;;;;;;2133888;27;19994;-45
2021/11/08 02:13:02;;;;;;;;;;;;;;;;;;2124997;27;20285;-45
2021/11/08 02:14:03;;;;;;;;;;;;;;;;;;2124360;28;19923;-45
2021/11/08 02:15:04;;;;;;;;;;;;;;;;;;2128595;27;20279;-45
2021/11/08 02:16:05;;;;;;;;;;;;;;;;;;2132732;27;19927;-44
2021/11/08 02:17:05;;;;;;;;;;;;;;;;;;2132700;27;19930;-45
2021/11/08 02:18:07;;;;;;;;;;;;;;;;;;2131659;27;19972;-44
2021/11/08 02:19:08;;;;;;;;;;;;;;;;;;2141375;27;19927;-44
2021/11/08 02:20:08;;;;;;;;;;;;;;;;;;2141361;27;19923;-44
2021/11/08 02:21:11;;;;;;;;;;;;;;;;;;2133037;27;19923;-44
2021/11/08 02:22:11;;;;;;;;;;;;;;;;;;2124236;28;20045;-45
2021/11/08 02:23:12;;;;;;;;;;;;;;;;;;2124034;27;19930;-44
2021/11/08 02:24:17;;;;;;;;;;;;;;;;;;2130596;27;19923;-44
2021/11/08 02:25:17;;;;;;;;;;;;;;;;;;2132770;27;19962;-44
2021/11/08 02:26:18;;;;;;;;;;;;;;;;;;2132030;27;20013;-45
2021/11/08 02:27:19;;;;;;;;;;;;;;;;;;2130995;27;19923;-44
2021/11/08 02:28:21;;;;;;;;;;;;;;;;;;2132654;27;20013;-44
2021/11/08 02:29:22;;;;;;;;;;;;;;;;;;2131216;27;20052;-46
2021/11/08 02:30:23;;;;;;;;;;;;;;;;;;2136689;27;20483;-44
2021/11/08 02:31:23;;;;;;;;;;;;;;;;;;2141396;27;19930;-43
2021/11/08 02:32:25;;;;;;;;;;;;;;;;;;2136482;27;19931;-45
2021/11/08 02:33:26;;;;;;;;;;;;;;;;;;2130513;27;19970;-46
2021/11/08 02:34:26;;;;;;;;;;;;;;;;;;2124197;28;19980;-44
2021/11/08 02:35:28;;;;;;;;;;;;;;;;;;2125626;27;19923;-44
2021/11/08 02:36:32;;;;;;;;;;;;;;;;;;2126022;27;19989;-44
2021/11/08 02:37:33;;;;;;;;;;;;;;;;;;2130678;27;19923;-45
2021/11/08 02:38:37;;;;;;;;;;;;;;;;;;2131667;27;19924;-44
2021/11/08 02:39:41;;;;;;;;;;;;;;;;;;2124031;28;20029;-44
2021/11/08 02:40:42;;;;;;;;;;;;;;;;;;2123564;27;19990;-44
2021/11/08 02:41:43;;;;;;;;;;;;;;;;;;2130511;27;20336;-44
2021/11/08 02:42:44;;;;;;;;;;;;;;;;;;2132813;27;19931;-44
2021/11/08 02:43:45;;;;;;;;;;;;;;;;;;2132101;27;20280;-45
2021/11/08 02:44:46;;;;;;;;;;;;;;;;;;2131803;27;19930;-45
2021/11/08 02:45:47;;;;;;;;;;;;;;;;;;2124047;28;19927;-45
2021/11/08 02:46:52;;;;;;;;;;;;;;;;;;2124741;27;19967;-44
2021/11/08 02:47:53;;;;;;;;;;;;;;;;;;2132487;27;20328;-44
2021/11/08 02:48:58;;;;;;;;;;;;;;;;;;2132628;27;19923;-45
2021/11/08 02:49:59;;;;;;;;;;;;;;;;;;2131276;27;20010;-44
2021/11/08 02:51:07;;;;;;;;;;;;;;;;;;2131176;27;20022;-45
2021/11/08 02:52:09;;;;;;;;;;;;;;;;;;2132701;27;19923;-44
2021/11/08 02:53:14;;;;;;;;;;;;;;;;;;2130263;27;20354;-45
2021/11/08 02:54:23;;;;;;;;;;;;;;;;;;2140795;27;19967;-45
2021/11/08 02:55:25;;;;;;;;;;;;;;;;;;2141206;27;20088;-45
2021/11/08 02:56:26;;;;;;;;;;;;;;;;;;2133732;27;20075;-45
2021/11/08 02:57:28;;;;;;;;;;;;;;;;;;2123827;28;19923;-46
2021/11/08 02:58:29;;;;;;;;;;;;;;;;;;2124200;28;20018;-45
2021/11/08 02:59:31;;;;;;;;;;;;;;;;;;2127999;27;20014;-44
2021/11/08 03:00:33;;;;;;;;;;;;;;;;;;2124073;28;19924;-45
2021/11/08 03:01:34;;;;;;;;;;;;;;;;;;2125457;27;19923;-44
2021/11/08 03:02:37;;;;;;;;;;;;;;;;;;2130033;27;19930;-44
2021/11/08 03:03:40;;;;;;;;;;;;;;;;;;2129852;27;19933;-44
2021/11/08 03:04:44;;;;;;;;;;;;;;;;;;2131366;27;20345;-44
2021/11/08 03:05:44;;;;;;;;;;;;;;;;;;2131240;27;20264;-45
2021/11/08 03:06:45;;;;;;;;;;;;;;;;;;2132412;27;19948;-44
2021/11/08 03:07:47;;;;;;;;;;;;;;;;;;2131226;27;19990;-44
2021/11/08 03:08:48;;;;;;;;;;;;;;;;;;2132214;27;20042;-44
2021/11/08 03:09:49;;;;;;;;;;;;;;;;;;2132585;27;20371;-44
2021/11/08 03:10:56;;;;;;;;;;;;;;;;;;2131093;27;20122;-44
2021/11/08 03:11:57;;;;;;;;;;;;;;;;;;2123913;28;20014;-44
2021/11/08 03:13:00;;;;;;;;;;;;;;;;;;2123946;28;19927;-45
2021/11/08 03:14:03;;;;;;;;;;;;;;;;;;2131581;27;19922;-45
2021/11/08 03:15:08;;;;;;;;;;;;;;;;;;2141056;27;19927;-44
2021/11/08 03:16:16;;;;;;;;;;;;;;;;;;2139585;27;19983;-45
2021/11/08 03:17:18;;;;;;;;;;;;;;;;;;2135798;27;20013;-45
2021/11/08 03:18:28;;;;;;;;;;;;;;;;;;2140942;27;19922;-44
2021/11/08 03:19:32;;;;;;;;;;;;;;;;;;2134753;27;20009;-44
2021/11/08 03:20:34;;;;;;;;;;;;;;;;;;2125835;27;19924;-44
2021/11/08 03:21:35;;;;;;;;;;;;;;;;;;2123861;28;20360;-45
2021/11/08 03:22:36;;;;;;;;;;;;;;;;;;2129804;27;20075;-44
2021/11/08 03:23:37;;;;;;;;;;;;;;;;;;2125724;27;19927;-44
2021/11/08 03:24:41;;;;;;;;;;;;;;;;;;2123788;28;19924;-45
2021/11/08 03:25:48;;;;;;;;;;;;;;;;;;2127867;27;20426;-44
2021/11/08 03:26:50;;;;;;;;;;;;;;;;;;2123698;28;20053;-44
2021/11/08 03:27:52;;;;;;;;;;;;;;;;;;2123802;28;20272;-44
2021/11/08 03:28:53;;;;;;;;;;;;;;;;;;2133211;27;20017;-44
2021/11/08 03:29:54;;;;;;;;;;;;;;;;;;2132433;27;19927;-44
2021/11/08 03:30:57;;;;;;;;;;;;;;;;;;2131694;27;20010;-44
2021/11/08 03:32:00;;;;;;;;;;;;;;;;;;2129752;27;20400;-44
2021/11/08 03:33:00;;;;;;;;;;;;;;;;;;2126771;27;20198;-45
2021/11/08 03:34:01;;;;;;;;;;;;;;;;;;2131408;27;19930;-44
2021/11/08 03:35:03;;;;;;;;;;;;;;;;;;2130750;27;19946;-44
2021/11/08 03:36:05;;;;;;;;;;;;;;;;;;2132249;27;20025;-44
2021/11/08 03:37:05;;;;;;;;;;;;;;;;;;2130499;27;20007;-44
2021/11/08 03:38:07;;;;;;;;;;;;;;;;;;2131685;27;19923;-44
2021/11/08 03:39:09;;;;;;;;;;;;;;;;;;2132400;27;20018;-44
2021/11/08 03:40:10;;;;;;;;;;;;;;;;;;2130734;27;20018;-44
2021/11/08 03:41:11;;;;;;;;;;;;;;;;;;2131240;27;20298;-45
2021/11/08 03:42:13;;;;;;;;;;;;;;;;;;2131411;27;20325;-44
2021/11/08 03:43:14;;;;;;;;;;;;;;;;;;2129565;27;20344;-44
2021/11/08 03:44:14;;;;;;;;;;;;;;;;;;2138734;27;19930;-44
2021/11/08 03:45:15;;;;;;;;;;;;;;;;;;2140822;27;20099;-44
2021/11/08 03:46:16;;;;;;;;;;;;;;;;;;2136035;27;19923;-44
2021/11/08 03:47:17;;;;;;;;;;;;;;;;;;2124436;27;19985;-44
2021/11/08 03:48:18;;;;;;;;;;;;;;;;;;2123732;28;20054;-45
2021/11/08 03:49:19;;;;;;;;;;;;;;;;;;2127299;27;20408;-44
2021/11/08 03:50:20;;;;;;;;;;;;;;;;;;2131648;27;19923;-45
2021/11/08 03:51:21;;;;;;;;;;;;;;;;;;2132208;27;19923;-44
2021/11/08 03:52:22;;;;;;;;;;;;;;;;;;2129864;27;20282;-44
2021/11/08 03:53:23;;;;;;;;;;;;;;;;;;2131978;27;19923;-44
2021/11/08 03:54:23;;;;;;;;;;;;;;;;;;2132046;27;20393;-44
2021/11/08 03:55:24;;;;;;;;;;;;;;;;;;2129391;27;19923;-44
2021/11/08 03:56:25;;;;;;;;;;;;;;;;;;2123472;27;19935;-44
2021/11/08 03:57:27;;;;;;;;;;;;;;;;;;2123489;28;20392;-45
2021/11/08 03:58:28;;;;;;;;;;;;;;;;;;2131376;27;20066;-44
2021/11/08 03:59:29;;;;;;;;;;;;;;;;;;2123451;28;19927;-44
2021/11/08 04:00:33;;;;;;;;;;;;;;;;;;2123149;27;19954;-44
2021/11/08 04:01:35;;;;;;;;;;;;;;;;;;2130054;27;20264;-44
2021/11/08 04:02:36;;;;;;;;;;;;;;;;;;2132030;27;19966;-44
2021/11/08 04:03:37;;;;;;;;;;;;;;;;;;2130018;27;19930;-45
2021/11/08 04:04:38;;;;;;;;;;;;;;;;;;2129965;27;19927;-44
2021/11/08 04:05:38;;;;;;;;;;;;;;;;;;2132044;27;19923;-44
2021/11/08 04:06:41;;;;;;;;;;;;;;;;;;2130587;27;20401;-44
2021/11/08 04:07:42;;;;;;;;;;;;;;;;;;2127097;27;20018;-44
2021/11/08 04:08:43;;;;;;;;;;;;;;;;;;2123532;28;19924;-43
2021/11/08 04:09:44;;;;;;;;;;;;;;;;;;2124186;27;19930;-44
2021/11/08 04:10:45;;;;;;;;;;;;;;;;;;2134618;27;20021;-44
2021/11/08 04:11:47;;;;;;;;;;;;;;;;;;2140613;27;20022;-44
2021/11/08 04:12:49;;;;;;;;;;;;;;;;;;2136129;27;19968;-45
2021/11/08 04:13:50;;;;;;;;;;;;;;;;;;2130398;27;20439;-44
2021/11/08 04:14:51;;;;;;;;;;;;;;;;;;2131900;27;19931;-45
2021/11/08 04:15:52;;;;;;;;;;;;;;;;;;2130953;27;20021;-43
2021/11/08 04:16:53;;;;;;;;;;;;;;;;;;2130328;27;19954;-44
2021/11/08 04:17:53;;;;;;;;;;;;;;;;;;2132018;27;19927;-45
2021/11/08 04:18:56;;;;;;;;;;;;;;;;;;2130838;27;19930;-45
2021/11/08 04:19:57;;;;;;;;;;;;;;;;;;2130894;27;20387;-44
2021/11/08 04:20:58;;;;;;;;;;;;;;;;;;2131965;27;20356;-43
2021/11/08 04:22:00;;;;;;;;;;;;;;;;;;2132714;27;19922;-43
2021/11/08 04:23:01;;;;;;;;;;;;;;;;;;2131841;27;20010;-44
2021/11/08 04:24:02;;;;;;;;;;;;;;;;;;2132151;27;20320;-44
2021/11/08 04:25:03;;;;;;;;;;;;;;;;;;2129506;27;20368;-45
2021/11/08 04:26:05;;;;;;;;;;;;;;;;;;2131906;27;20023;-44
2021/11/08 04:27:06;;;;;;;;;;;;;;;;;;2131814;27;19974;-45
2021/11/08 04:28:07;;;;;;;;;;;;;;;;;;2132405;27;20001;-44
2021/11/08 04:29:07;;;;;;;;;;;;;;;;;;2123425;28;19927;-44
2021/11/08 04:30:08;;;;;;;;;;;;;;;;;;2130671;27;19979;-44
2021/11/08 04:31:09;;;;;;;;;;;;;;;;;;2131721;27;19927;-44
2021/11/08 04:32:10;;;;;;;;;;;;;;;;;;2123192;28;19924;-44
2021/11/08 04:33:17;;;;;;;;;;;;;;;;;;2122952;27;20010;-44
2021/11/08 04:34:20;;;;;;;;;;;;;;;;;;2130697;27;20051;-44
2021/11/08 04:35:26;;;;;;;;;;;;;;;;;;2123424;28;20010;-44
2021/11/08 04:36:43;;;;;;;;;;;;;;;;;;2123961;27;20023;-44
2021/11/08 04:38:03;;;;;;;;;;;;;;;;;;2124088;27;20370;-45
2021/11/08 04:39:25;;;;;;;;;;;;;;;;;;2123312;28;20014;-45
2021/11/08 04:40:29;;;;;;;;;;;;;;;;;;2126360;27;19927;-44
2021/11/08 04:41:39;;;;;;;;;;;;;;;;;;2123198;28;19923;-45
2021/11/08 04:42:52;;;;;;;;;;;;;;;;;;2128433;27;20023;-45
2021/11/08 04:44:04;;;;;;;;;;;;;;;;;;2131637;27;20360;-44
2021/11/08 04:45:21;;;;;;;;;;;;;;;;;;2131450;27;19967;-45
2021/11/08 04:46:45;;;;;;;;;;;;;;;;;;2126349;27;20056;-44
2021/11/08 04:49:11;;;;;;;;;;;;;;;;;;2129033;27;20049;-44
2021/11/08 04:50:19;;;;;;;;;;;;;;;;;;2131555;27;20283;-44
2021/11/08 04:51:31;;;;;;;;;;;;;;;;;;2129735;27;20350;-45
2021/11/08 04:52:44;;;;;;;;;;;;;;;;;;2125153;27;20252;-44
2021/11/08 04:53:52;;;;;;;;;;;;;;;;;;2123368;28;20068;-44
2021/11/08 04:54:59;;;;;;;;;;;;;;;;;;2128786;27;20010;-44
2021/11/08 04:56:40;;;;;;;;;;;;;;;;;;2131743;27;19970;-46
2021/11/08 04:58:02;;;;;;;;;;;;;;;;;;2129381;27;20014;-44
2021/11/08 05:22:59;;;;;;;;;;;;;;;;;;2106493;28;20011;-51
2021/11/08 05:24:23;;;;;;;;;;;;;;;;;;2126805;27;20006;-51
2021/11/08 05:28:29;;;;;;;;;;;;;;;;;;2108743;27;19974;-50
2021/11/08 05:30:50;;;;;;;;;;;;;;;;;;2132185;27;20002;-52
2021/11/08 05:31:50;;;;;;;;;;;;;;;;;;2132998;27;20339;-51
2021/11/08 05:32:52;;;;;;;;;;;;;;;;;;2131001;27;20360;-49
2021/11/08 05:33:52;;;;;;;;;;;;;;;;;;2128183;27;20010;-52
2021/11/08 05:34:53;;;;;;;;;;;;;;;;;;2124458;28;19923;-49
2021/11/08 05:35:54;;;;;;;;;;;;;;;;;;2127053;27;19923;-51
2021/11/08 05:36:55;;;;;;;;;;;;;;;;;;2131609;27;19923;-50
2021/11/08 05:37:56;;;;;;;;;;;;;;;;;;2132900;27;20048;-50
2021/11/08 05:38:57;;;;;;;;;;;;;;;;;;2129441;27;20076;-51
2021/11/08 05:40:06;;;;;;;;;;;;;;;;;;2139782;27;19927;-50
2021/11/08 05:41:06;;;;;;;;;;;;;;;;;;2141825;27;19966;-51
2021/11/08 05:42:07;;;;;;;;;;;;;;;;;;2132965;27;19923;-50
2021/11/08 05:43:08;;;;;;;;;;;;;;;;;;2132814;27;19927;-52
2021/11/08 05:44:09;;;;;;;;;;;;;;;;;;2132973;27;19924;-49
2021/11/08 05:45:10;;;;;;;;;;;;;;;;;;2132626;27;19927;-50
2021/11/08 05:46:11;;;;;;;;;;;;;;;;;;2124550;27;19923;-52
2021/11/08 05:47:12;;;;;;;;;;;;;;;;;;2124430;28;19924;-50
2021/11/08 05:48:13;;;;;;;;;;;;;;;;;;2132412;27;20427;-50
2021/11/08 05:49:13;;;;;;;;;;;;;;;;;;2124379;28;20426;-51
2021/11/08 05:50:14;;;;;;;;;;;;;;;;;;2124515;28;20001;-50
2021/11/08 05:51:15;;;;;;;;;;;;;;;;;;2129792;27;19968;-49
2021/11/08 05:52:16;;;;;;;;;;;;;;;;;;2132916;27;19923;-48
2021/11/08 05:53:17;;;;;;;;;;;;;;;;;;2132380;27;19973;-52
2021/11/08 05:54:18;;;;;;;;;;;;;;;;;;2130890;27;20246;-49
2021/11/08 05:55:19;;;;;;;;;;;;;;;;;;2132852;27;20279;-55
2021/11/08 05:56:26;;;;;;;;;;;;;;;;;;2132313;27;20375;-49
2021/11/08 05:59:01;;;;;;;;;;;;;;;;;;2141518;27;19979;-49
2021/11/08 06:12:25;;;;;;;;;;;;;;;;;;2097944;28;19961;-50
2021/11/08 06:49:41;;;;;;;;;;;;;;;;;;2105509;28;20011;-46
2021/11/08 06:50:42;;;;;;;;;;;;;;;;;;2130416;27;19974;-45
2021/11/08 06:51:43;;;;;;;;;;;;;;;;;;2132473;27;19923;-45
2021/11/08 06:52:46;;;;;;;;;;;;;;;;;;2132155;27;20375;-45
2021/11/08 06:53:55;;;;;;;;;;;;;;;;;;2131309;27;19934;-45
2021/11/08 06:54:56;;;;;;;;;;;;;;;;;;2132624;27;20044;-44
2021/11/08 06:55:58;;;;;;;;;;;;;;;;;;2129612;27;20014;-45
2021/11/08 06:57:04;;;;;;;;;;;;;;;;;;2131154;27;20018;-45
2021/11/08 06:58:11;;;;;;;;;;;;;;;;;;2132415;27;19966;-45
2021/11/08 06:59:15;;;;;;;;;;;;;;;;;;2131903;27;19994;-46
2021/11/08 07:00:15;;;;;;;;;;;;;;;;;;2132238;27;20425;-45
2021/11/08 07:01:16;;;;;;;;;;;;;;;;;;2132640;27;19966;-45
2021/11/08 07:02:17;;;;;;;;;;;;;;;;;;2130622;27;20383;-45
2021/11/08 07:03:18;;;;;;;;;;;;;;;;;;2130269;27;19930;-46
2021/11/08 07:04:19;;;;;;;;;;;;;;;;;;2123857;28;19927;-46
2021/11/08 07:05:20;;;;;;;;;;;;;;;;;;2131797;27;20381;-45
2021/11/08 07:06:20;;;;;;;;;;;;;;;;;;2123952;28;19923;-45
2021/11/08 07:07:21;;;;;;;;;;;;;;;;;;2123897;28;20407;-46
2021/11/08 07:08:22;;;;;;;;;;;;;;;;;;2129344;27;19976;-46
2021/11/08 07:09:23;;;;;;;;;;;;;;;;;;2132407;27;20272;-45
2021/11/08 07:10:24;;;;;;;;;;;;;;;;;;2132394;27;19967;-45
2021/11/08 07:11:25;;;;;;;;;;;;;;;;;;2129856;27;20056;-47
2021/11/08 07:12:25;;;;;;;;;;;;;;;;;;2132265;27;19927;-46
2021/11/08 07:13:26;;;;;;;;;;;;;;;;;;2131862;27;19923;-45
2021/11/08 07:14:27;;;;;;;;;;;;;;;;;;2130513;27;19930;-46
2021/11/08 07:15:28;;;;;;;;;;;;;;;;;;2132552;27;20389;-45
2021/11/08 07:16:29;;;;;;;;;;;;;;;;;;2131873;27;20417;-45
2021/11/08 07:17:30;;;;;;;;;;;;;;;;;;2134150;27;19991;-47
2021/11/08 07:18:34;;;;;;;;;;;;;;;;;;2135450;27;19942;-45
2021/11/08 07:19:35;;;;;;;;;;;;;;;;;;2130903;27;19923;-47
2021/11/08 07:20:36;;;;;;;;;;;;;;;;;;2136463;27;19923;-46
2021/11/08 07:21:37;;;;;;;;;;;;;;;;;;2140906;27;19922;-46
2021/11/08 07:22:38;;;;;;;;;;;;;;;;;;2136173;27;19934;-46
2021/11/08 07:23:38;;;;;;;;;;;;;;;;;;2131240;27;19927;-45
2021/11/08 07:24:39;;;;;;;;;;;;;;;;;;2132282;27;19991;-45
2021/11/08 07:25:40;;;;;;;;;;;;;;;;;;2130195;27;19927;-46
2021/11/08 07:26:41;;;;;;;;;;;;;;;;;;2138408;27;19922;-48
2021/11/08 07:27:42;;;;;;;;;;;;;;;;;;2140897;27;19923;-46
2021/11/08 07:28:43;;;;;;;;;;;;;;;;;;2135599;27;19932;-46
2021/11/08 07:29:43;;;;;;;;;;;;;;;;;;2130836;27;19974;-48
2021/11/08 07:30:46;;;;;;;;;;;;;;;;;;2132248;27;19927;-46
2021/11/08 07:31:47;;;;;;;;;;;;;;;;;;2130806;27;20017;-45
2021/11/08 07:32:48;;;;;;;;;;;;;;;;;;2131577;27;20381;-50
2021/11/08 07:33:49;;;;;;;;;;;;;;;;;;2132353;27;20352;-51
2021/11/08 07:34:49;;;;;;;;;;;;;;;;;;2129982;27;20345;-54
2021/11/08 07:35:50;;;;;;;;;;;;;;;;;;2140565;27;19933;-52
2021/11/08 07:36:52;;;;;;;;;;;;;;;;;;2140685;27;19923;-53
2021/11/08 07:37:53;;;;;;;;;;;;;;;;;;2130376;27;20019;-51
2021/11/08 07:38:54;;;;;;;;;;;;;;;;;;2132052;27;19923;-51
2021/11/08 07:39:55;;;;;;;;;;;;;;;;;;2132390;27;19930;-52
2021/11/08 07:40:56;;;;;;;;;;;;;;;;;;2129808;27;19923;-51
2021/11/08 07:41:57;;;;;;;;;;;;;;;;;;2139839;27;19923;-54
2021/11/08 07:42:57;;;;;;;;;;;;;;;;;;2141130;27;19999;-45
2021/11/08 07:43:58;;;;;;;;;;;;;;;;;;2133603;27;20379;-47
2021/11/08 07:44:59;;;;;;;;;;;;;;;;;;2132312;27;19931;-46
2021/11/08 07:46:00;;;;;;;;;;;;;;;;;;2132518;27;20367;-51
2021/11/08 07:47:00;;;;;;;;;;;;;;;;;;2129696;27;19924;-54
2021/11/08 07:48:04;;;;;;;;;;;;;;;;;;2132320;27;19929;-50
2021/11/08 07:49:10;;;;;;;;;;;;;;;;;;2131236;27;20371;-51
2021/11/08 07:50:11;;;;;;;;;;;;;;;;;;2130430;27;19923;-52
2021/11/08 07:51:12;;;;;;;;;;;;;;;;;;2132124;27;20302;-53
2021/11/08 07:52:13;;;;;;;;;;;;;;;;;;2130804;27;19923;-50
2021/11/08 07:53:13;;;;;;;;;;;;;;;;;;2131331;27;19923;-51
2021/11/08 07:54:14;;;;;;;;;;;;;;;;;;2132279;27;19923;-54
2021/11/08 07:55:15;;;;;;;;;;;;;;;;;;2130460;27;19938;-51
2021/11/08 07:56:16;;;;;;;;;;;;;;;;;;2131579;27;19930;-53
2021/11/08 07:57:17;;;;;;;;;;;;;;;;;;2131943;27;19968;-45
2021/11/08 07:58:18;;;;;;;;;;;;;;;;;;2131030;27;19927;-45
2021/11/08 07:59:19;;;;;;;;;;;;;;;;;;2128858;27;19931;-46
2021/11/08 08:00:19;;;;;;;;;;;;;;;;;;2123647;28;19966;-47
2021/11/08 08:01:20;;;;;;;;;;;;;;;;;;2125564;27;19980;-45
2021/11/08 08:02:21;;;;;;;;;;;;;;;;;;2138591;27;19923;-45
2021/11/08 08:03:22;;;;;;;;;;;;;;;;;;2134070;27;19924;-45
2021/11/08 08:04:23;;;;;;;;;;;;;;;;;;2131002;27;20384;-46
2021/11/08 08:05:24;;;;;;;;;;;;;;;;;;2130669;27;19930;-45
2021/11/08 08:06:24;;;;;;;;;;;;;;;;;;2131968;27;20000;-45
2021/11/08 08:07:25;;;;;;;;;;;;;;;;;;2129126;27;19938;-46
2021/11/08 08:08:26;;;;;;;;;;;;;;;;;;2139373;27;19922;-47
2021/11/08 08:09:27;;;;;;;;;;;;;;;;;;2140664;27;19927;-46
2021/11/08 08:10:28;;;;;;;;;;;;;;;;;;2132120;27;19922;-44
2021/11/08 08:11:29;;;;;;;;;;;;;;;;;;2131995;27;20376;-45
2021/11/08 08:12:30;;;;;;;;;;;;;;;;;;2131890;27;20348;-45
2021/11/08 08:13:31;;;;;;;;;;;;;;;;;;2129783;27;19929;-45
2021/11/08 08:14:31;;;;;;;;;;;;;;;;;;2131574;27;19931;-45
2021/11/08 08:15:32;;;;;;;;;;;;;;;;;;2131841;27;19931;-54
2021/11/08 08:16:33;;;;;;;;;;;;;;;;;;2130925;27;19973;-53
2021/11/08 08:17:34;;;;;;;;;;;;;;;;;;2123567;28;19923;-54
2021/11/08 08:18:36;;;;;;;;;;;;;;;;;;2124102;27;19923;-54
2021/11/08 08:19:36;;;;;;;;;;;;;;;;;;2130609;27;20337;-52
2021/11/08 08:20:38;;;;;;;;;;;;;;;;;;2123357;28;20300;-50
2021/11/08 08:21:38;;;;;;;;;;;;;;;;;;2124166;27;19924;-52
2021/11/08 08:22:39;;;;;;;;;;;;;;;;;;2134414;27;19947;-46
2021/11/08 08:23:41;;;;;;;;;;;;;;;;;;2140668;27;19944;-44
2021/11/08 08:24:42;;;;;;;;;;;;;;;;;;2135879;27;20355;-45
2021/11/08 08:25:43;;;;;;;;;;;;;;;;;;2125123;27;19930;-45